createdAt,value
2019-03-17T00:00:53.569Z,5.93
2019-03-17T00:03:19.961Z,6.07
2019-03-17T00:05:46.311Z,6.17
2019-03-17T00:08:12.683Z,6.37
2019-03-17T00:10:39.142Z,5.93
2019-03-17T00:13:05.571Z,6.00
2019-03-17T00:15:32.082Z,5.97
2019-03-17T00:17:58.559Z,5.63
2019-03-17T00:20:24.907Z,5.17
2019-03-17T00:22:51.305Z,5.23
2019-03-17T00:25:17.755Z,5.80
2019-03-17T00:27:44.323Z,4.73
2019-03-17T00:30:10.880Z,5.40
2019-03-17T00:32:37.355Z,5.10
2019-03-17T00:35:04.301Z,5.60
2019-03-17T00:37:30.897Z,5.37
2019-03-17T00:39:57.477Z,5.77
2019-03-17T00:42:23.935Z,5.07
2019-03-17T00:44:50.284Z,5.90
2019-03-17T00:47:16.855Z,5.30
2019-03-17T00:49:43.348Z,5.03
2019-03-17T00:52:11.524Z,6.00
2019-03-17T00:54:37.961Z,5.33
2019-03-17T00:57:04.429Z,6.10
2019-03-17T00:59:31.028Z,5.13
2019-03-17T01:01:57.579Z,5.70
2019-03-17T01:04:23.953Z,6.60
2019-03-17T01:06:50.326Z,6.13
2019-03-17T01:09:16.707Z,6.30
2019-03-17T01:11:43.070Z,6.03
2019-03-17T01:14:09.431Z,5.90
2019-03-17T01:16:35.880Z,6.00
2019-03-17T01:19:02.464Z,5.37
2019-03-17T01:21:28.808Z,5.30
2019-03-17T01:23:55.194Z,5.40
2019-03-17T01:26:21.552Z,5.30
2019-03-17T01:28:47.920Z,5.03
2019-03-17T01:31:14.274Z,5.40
2019-03-17T01:33:40.756Z,5.77
2019-03-17T01:36:06.944Z,5.50
2019-03-17T01:38:33.415Z,5.87
2019-03-17T01:40:59.794Z,5.47
2019-03-17T01:43:26.270Z,6.17
2019-03-17T01:45:52.614Z,7.07
2019-03-17T01:48:19.096Z,6.77
2019-03-17T01:50:45.583Z,6.53
2019-03-17T01:53:11.972Z,6.23
2019-03-17T01:55:38.435Z,6.07
2019-03-17T01:58:04.840Z,5.93
2019-03-17T02:00:31.424Z,6.30
2019-03-17T02:02:57.870Z,7.33
2019-03-17T02:05:24.459Z,7.13
2019-03-17T02:07:50.901Z,7.10
2019-03-17T02:10:17.302Z,6.63
2019-03-17T02:12:43.648Z,6.93
2019-03-17T02:15:10.129Z,6.67
2019-03-17T02:17:36.584Z,7.00
2019-03-17T02:20:04.051Z,6.83
2019-03-17T02:22:31.474Z,6.70
2019-03-17T02:24:58.044Z,7.03
2019-03-17T02:27:24.395Z,6.67
2019-03-17T02:29:50.897Z,6.37
2019-03-17T02:32:17.346Z,6.63
2019-03-17T02:34:43.725Z,6.63
2019-03-17T02:37:10.065Z,6.60
2019-03-17T02:39:36.574Z,7.07
2019-03-17T02:42:03.146Z,6.70
2019-03-17T02:44:29.523Z,6.90
2019-03-17T02:46:56.000Z,6.83
2019-03-17T02:49:22.444Z,6.63
2019-03-17T02:51:48.828Z,6.23
2019-03-17T02:54:15.375Z,6.33
2019-03-17T02:56:41.744Z,6.57
2019-03-17T02:59:08.246Z,6.37
2019-03-17T03:01:34.645Z,6.33
2019-03-17T03:04:01.091Z,6.00
2019-03-17T03:06:27.558Z,6.50
2019-03-17T03:08:54.085Z,5.53
2019-03-17T03:11:20.558Z,6.57
2019-03-17T03:13:46.921Z,6.00
2019-03-17T03:16:13.393Z,6.27
2019-03-17T03:18:39.776Z,6.93
2019-03-17T03:21:06.265Z,6.37
2019-03-17T03:23:32.612Z,6.80
2019-03-17T03:25:59.163Z,7.37
2019-03-17T03:28:25.772Z,6.97
2019-03-17T03:30:52.278Z,6.53
2019-03-17T03:33:18.738Z,6.33
2019-03-17T03:35:45.252Z,6.50
2019-03-17T03:38:11.718Z,6.67
2019-03-17T03:40:38.192Z,6.80
2019-03-17T03:43:04.659Z,6.23
2019-03-17T03:45:31.143Z,6.97
2019-03-17T03:47:57.527Z,6.60
2019-03-17T03:50:23.982Z,6.67
2019-03-17T03:52:50.463Z,6.80
2019-03-17T03:55:16.923Z,6.57
2019-03-17T03:57:43.379Z,6.20
2019-03-17T04:00:10.989Z,7.07
2019-03-17T04:02:37.371Z,6.97
2019-03-17T04:05:04.569Z,6.67
2019-03-17T04:07:31.042Z,6.77
2019-03-17T04:09:57.589Z,6.57
2019-03-17T04:12:24.064Z,6.13
2019-03-17T04:14:50.436Z,6.43
2019-03-17T04:17:16.906Z,6.63
2019-03-17T04:19:43.485Z,6.07
2019-03-17T04:22:10.060Z,5.47
2019-03-17T04:24:36.524Z,6.37
2019-03-17T04:27:03.108Z,5.87
2019-03-17T04:29:29.475Z,5.50
2019-03-17T04:31:56.041Z,5.90
2019-03-17T04:34:22.483Z,6.10
2019-03-17T04:36:48.965Z,5.80
2019-03-17T04:39:15.388Z,5.00
2019-03-17T04:41:41.948Z,5.93
2019-03-17T04:44:20.012Z,5.37
2019-03-17T04:46:36.772Z,5.67
2019-03-17T04:49:03.127Z,5.43
2019-03-17T04:51:29.584Z,5.87
2019-03-17T04:53:55.939Z,5.33
2019-03-17T04:56:22.328Z,5.53
2019-03-17T04:58:48.754Z,5.20
2019-03-17T05:01:15.204Z,5.10
2019-03-17T05:03:41.676Z,5.40
2019-03-17T05:06:08.047Z,5.00
2019-03-17T05:08:34.521Z,5.43
2019-03-17T05:11:00.967Z,4.77
2019-03-17T05:13:27.460Z,5.13
2019-03-17T05:15:53.818Z,5.20
2019-03-17T05:18:20.286Z,4.60
2019-03-17T05:20:46.759Z,4.63
2019-03-17T05:23:13.323Z,4.90
2019-03-17T05:25:39.787Z,4.67
2019-03-17T05:28:06.156Z,4.57
2019-03-17T05:30:32.504Z,4.80
2019-03-17T05:32:58.863Z,5.03
2019-03-17T05:35:25.227Z,4.40
2019-03-17T05:37:51.713Z,4.93
2019-03-17T05:40:18.071Z,4.43
2019-03-17T05:42:44.463Z,4.70
2019-03-17T05:45:10.846Z,4.67
2019-03-17T05:47:37.402Z,4.70
2019-03-17T05:50:04.757Z,5.33
2019-03-17T05:52:31.328Z,4.73
2019-03-17T05:54:57.787Z,4.53
2019-03-17T05:57:24.383Z,5.00
2019-03-17T05:59:50.771Z,5.20
2019-03-17T06:02:17.247Z,5.57
2019-03-17T06:04:43.803Z,5.83
2019-03-17T06:07:18.675Z,5.80
2019-03-17T06:09:38.534Z,5.57
2019-03-17T06:12:04.991Z,4.87
2019-03-17T06:14:31.479Z,4.80
2019-03-17T06:16:57.870Z,4.90
2019-03-17T06:19:24.245Z,4.77
2019-03-17T06:21:50.600Z,4.70
2019-03-17T06:24:17.075Z,4.57
2019-03-17T06:26:43.533Z,4.93
2019-03-17T06:29:09.912Z,5.00
2019-03-17T06:31:36.367Z,4.50
2019-03-17T06:34:03.039Z,7.00
2019-03-17T06:36:29.580Z,5.47
2019-03-17T06:38:56.055Z,4.60
2019-03-17T06:41:22.400Z,4.93
2019-03-17T06:43:48.885Z,4.37
2019-03-17T06:46:15.252Z,3.97
2019-03-17T06:48:41.619Z,4.43
2019-03-17T06:51:07.963Z,3.67
2019-03-17T06:55:56.408Z,3.80
2019-03-17T06:58:22.943Z,4.40
2019-03-17T07:00:49.286Z,4.30
2019-03-17T07:03:15.669Z,4.00
2019-03-17T07:05:42.215Z,5.30
2019-03-17T07:08:08.691Z,5.27
2019-03-17T07:10:35.139Z,4.87
2019-03-17T07:13:01.514Z,3.77
2019-03-17T07:15:28.068Z,4.40
2019-03-17T07:17:54.628Z,4.80
2019-03-17T07:20:20.993Z,4.33
2019-03-17T07:22:47.376Z,4.60
2019-03-17T07:25:13.739Z,4.37
2019-03-17T07:27:40.202Z,4.63
2019-03-17T07:30:08.571Z,4.03
2019-03-17T07:32:35.127Z,4.23
2019-03-17T07:35:01.831Z,4.13
2019-03-17T07:37:28.175Z,4.77
2019-03-17T07:39:54.644Z,4.63
2019-03-17T07:42:21.010Z,4.10
2019-03-17T07:44:47.472Z,4.50
2019-03-17T07:47:13.928Z,5.23
2019-03-17T07:49:40.416Z,5.10
2019-03-17T07:52:06.762Z,4.93
2019-03-17T07:54:35.094Z,5.33
2019-03-17T07:57:01.627Z,4.83
2019-03-17T07:59:28.136Z,4.50
2019-03-17T08:01:54.698Z,4.17
2019-03-17T08:04:21.182Z,4.20
2019-03-17T08:06:50.384Z,3.60
2019-03-17T08:09:16.736Z,3.70
2019-03-17T08:11:43.291Z,4.23
2019-03-17T08:14:09.788Z,3.73
2019-03-17T08:16:36.152Z,3.30
2019-03-17T08:19:05.560Z,3.00
2019-03-17T08:21:31.907Z,3.10
2019-03-17T08:23:58.298Z,3.90
2019-03-17T08:26:24.763Z,4.50
2019-03-17T08:28:51.223Z,4.80
2019-03-17T08:31:17.670Z,3.37
2019-03-17T08:33:44.071Z,4.10
2019-03-17T08:36:10.527Z,4.20
2019-03-17T08:38:36.971Z,3.07
2019-03-17T08:41:03.451Z,3.40
2019-03-17T08:43:29.802Z,2.93
2019-03-17T08:45:56.179Z,2.50
2019-03-17T08:48:22.533Z,2.60
2019-03-17T08:50:49.021Z,2.10
2019-03-17T08:53:15.480Z,2.07
2019-03-17T08:55:41.943Z,2.00
2019-03-17T08:58:08.397Z,2.08
2019-03-17T09:00:34.807Z,2.57
2019-03-17T09:03:01.187Z,2.03
2019-03-17T09:05:27.563Z,2.05
2019-03-17T09:07:53.914Z,1.93
2019-03-17T09:10:20.284Z,1.67
2019-03-17T09:12:46.639Z,1.80
2019-03-17T09:15:13.002Z,1.42
2019-03-17T09:17:39.599Z,1.40
2019-03-17T09:20:07.976Z,1.02
2019-03-17T09:22:34.328Z,0.98
2019-03-17T09:25:00.701Z,1.65
2019-03-17T09:27:27.045Z,1.20
2019-03-17T09:29:53.514Z,1.20
2019-03-17T09:32:19.896Z,1.20
2019-03-17T09:34:46.274Z,1.10
2019-03-17T09:37:12.625Z,1.20
2019-03-17T09:39:38.986Z,1.55
2019-03-17T09:42:05.338Z,1.90
2019-03-17T09:44:31.719Z,0.90
2019-03-17T09:46:58.071Z,0.93
2019-03-17T09:49:24.467Z,1.10
2019-03-17T09:51:51.028Z,0.70
2019-03-17T09:54:17.655Z,1.25
2019-03-17T09:56:46.067Z,0.93
2019-03-17T09:59:12.456Z,1.57
2019-03-17T10:01:39.047Z,1.20
2019-03-17T10:04:05.616Z,2.08
2019-03-17T10:06:32.187Z,2.02
2019-03-17T10:09:00.259Z,1.47
2019-03-17T10:11:26.916Z,1.37
2019-03-17T10:13:53.471Z,1.22
2019-03-17T10:16:19.839Z,1.00
2019-03-17T10:18:46.321Z,1.10
2019-03-17T10:21:12.910Z,1.10
2019-03-17T10:23:39.295Z,1.20
2019-03-17T10:26:05.772Z,1.20
2019-03-17T10:28:35.004Z,1.05
2019-03-17T10:31:00.512Z,1.45
2019-03-17T10:33:26.956Z,1.00
2019-03-17T10:35:53.324Z,1.30
2019-03-17T10:38:19.775Z,1.10
2019-03-17T10:40:46.176Z,1.30
2019-03-17T10:43:12.639Z,1.37
2019-03-17T10:45:39.104Z,1.07
2019-03-17T10:48:05.451Z,1.10
2019-03-17T10:50:31.971Z,1.20
2019-03-17T10:52:58.333Z,1.30
2019-03-17T10:55:24.711Z,1.02
2019-03-17T10:57:51.294Z,1.57
2019-03-17T11:00:19.313Z,1.20
2019-03-17T11:02:45.773Z,1.37
2019-03-17T11:05:12.252Z,1.10
2019-03-17T11:07:38.711Z,1.37
2019-03-17T11:10:06.804Z,1.12
2019-03-17T11:12:33.577Z,1.20
2019-03-17T11:14:59.973Z,1.20
2019-03-17T11:17:26.391Z,1.20
2019-03-17T11:19:52.868Z,1.10
2019-03-17T11:22:19.329Z,1.60
2019-03-17T11:24:45.684Z,1.17
2019-03-17T11:27:12.160Z,1.40
2019-03-17T11:29:38.627Z,1.37
2019-03-17T11:32:06.583Z,1.35
2019-03-17T11:34:33.392Z,1.20
2019-03-17T11:36:59.764Z,1.20
2019-03-17T11:39:37.212Z,1.10
2019-03-17T11:41:54.511Z,1.15
2019-03-17T11:44:21.064Z,1.20
2019-03-17T11:46:47.641Z,1.22
2019-03-17T11:49:14.107Z,1.40
2019-03-17T11:51:40.591Z,1.40
2019-03-17T11:54:06.942Z,1.12
2019-03-17T11:56:33.508Z,1.20
2019-03-17T11:58:59.988Z,1.30
2019-03-17T12:01:26.504Z,1.10
2019-03-17T12:03:52.869Z,1.60
2019-03-17T12:06:19.345Z,1.20
2019-03-17T12:08:45.825Z,1.20
2019-03-17T12:11:12.301Z,1.40
2019-03-17T12:13:38.791Z,1.55
2019-03-17T12:16:05.366Z,1.55
2019-03-17T12:18:31.742Z,1.20
2019-03-17T12:20:58.319Z,1.35
2019-03-17T12:23:24.871Z,1.60
2019-03-17T12:25:51.261Z,1.20
2019-03-17T12:28:17.598Z,1.40
2019-03-17T12:30:44.079Z,1.40
2019-03-17T12:33:10.533Z,1.60
2019-03-17T12:35:38.547Z,1.50
2019-03-17T12:38:05.020Z,1.45
2019-03-17T12:40:31.488Z,1.50
2019-03-17T12:42:57.859Z,1.45
2019-03-17T12:45:24.315Z,1.40
2019-03-17T12:47:50.719Z,2.00
2019-03-17T12:50:18.191Z,1.90
2019-03-17T12:52:44.559Z,1.85
2019-03-17T12:55:11.009Z,1.70
2019-03-17T12:57:37.415Z,1.57
2019-03-17T13:00:05.801Z,1.60
2019-03-17T13:02:32.171Z,2.40
2019-03-17T13:04:58.559Z,1.52
2019-03-17T13:07:25.049Z,1.90
2019-03-17T13:09:51.405Z,1.72
2019-03-17T13:12:17.867Z,1.82
2019-03-17T13:14:44.226Z,1.90
2019-03-17T13:17:10.698Z,1.85
2019-03-17T13:19:37.044Z,1.90
2019-03-17T13:22:03.642Z,2.37
2019-03-17T13:24:30.095Z,1.80
2019-03-17T13:26:56.473Z,1.80
2019-03-17T13:29:22.926Z,1.95
2019-03-17T13:31:49.314Z,1.95
2019-03-17T13:34:15.437Z,2.05
2019-03-17T13:36:41.931Z,1.70
2019-03-17T13:39:08.306Z,1.90
2019-03-17T13:41:34.879Z,2.35
2019-03-17T13:44:01.347Z,1.90
2019-03-17T13:46:27.931Z,2.17
2019-03-17T13:48:54.280Z,1.80
2019-03-17T13:51:20.677Z,1.90
2019-03-17T13:53:47.128Z,1.90
2019-03-17T13:56:13.586Z,2.60
2019-03-17T13:58:39.966Z,1.67
2019-03-17T14:01:06.355Z,1.75
2019-03-17T14:03:32.941Z,1.70
2019-03-17T14:05:59.487Z,2.10
2019-03-17T14:08:25.963Z,1.80
2019-03-17T14:10:52.324Z,1.65
2019-03-17T14:13:18.813Z,2.00
2019-03-17T14:15:45.260Z,2.00
2019-03-17T14:18:11.735Z,1.62
2019-03-17T14:20:38.081Z,2.35
2019-03-17T14:23:04.543Z,1.45
2019-03-17T14:25:32.200Z,2.10
2019-03-17T14:27:59.017Z,1.70
2019-03-17T14:30:25.463Z,2.08
2019-03-17T14:32:51.878Z,1.62
2019-03-17T14:35:21.363Z,1.87
2019-03-17T14:37:46.721Z,1.85
2019-03-17T14:40:13.672Z,1.92
2019-03-17T14:42:40.139Z,1.30
2019-03-17T14:45:08.300Z,1.33
2019-03-17T14:47:37.490Z,1.27
2019-03-17T14:50:05.842Z,1.00
2019-03-17T14:52:32.331Z,0.83
2019-03-17T14:54:58.917Z,0.40
2019-03-17T14:57:25.404Z,0.60
2019-03-17T14:59:51.787Z,0.37
2019-03-17T15:02:18.176Z,0.50
2019-03-17T15:04:44.570Z,0.27
2019-03-17T15:07:10.956Z,0.30
2019-03-17T15:09:37.536Z,0.37
2019-03-17T15:12:04.112Z,0.40
2019-03-17T15:14:30.663Z,0.40
2019-03-17T15:16:57.039Z,0.40
2019-03-17T15:19:23.498Z,0.47
2019-03-17T15:21:49.973Z,0.37
2019-03-17T15:24:16.372Z,0.40
2019-03-17T15:26:42.819Z,0.23
2019-03-17T15:29:09.191Z,0.30
2019-03-17T15:31:35.552Z,0.37
2019-03-17T15:34:01.916Z,0.47
2019-03-17T15:36:28.412Z,0.27
2019-03-17T15:38:55.039Z,0.30
2019-03-17T15:41:21.483Z,0.30
2019-03-17T15:43:47.960Z,0.20
2019-03-17T15:46:14.320Z,0.30
2019-03-17T15:48:40.808Z,0.40
2019-03-17T15:51:19.244Z,0.40
2019-03-17T15:53:35.731Z,0.43
2019-03-17T15:56:02.184Z,0.40
2019-03-17T15:58:28.587Z,0.50
2019-03-17T16:00:55.079Z,0.50
2019-03-17T16:03:21.551Z,0.60
2019-03-17T16:05:48.006Z,0.93
2019-03-17T16:08:14.388Z,0.80
2019-03-17T16:10:40.794Z,0.87
2019-03-17T16:13:07.241Z,0.70
2019-03-17T16:15:33.698Z,0.70
2019-03-17T16:18:00.281Z,1.00
2019-03-17T16:20:26.735Z,1.50
2019-03-17T16:22:53.195Z,1.27
2019-03-17T16:25:20.652Z,1.00
2019-03-17T16:27:47.258Z,0.90
2019-03-17T16:30:15.013Z,1.43
2019-03-17T16:32:41.476Z,7.97
2019-03-17T16:35:07.921Z,2.30
2019-03-17T16:37:34.483Z,1.80
2019-03-17T16:40:00.847Z,1.83
2019-03-17T16:42:27.203Z,2.13
2019-03-17T16:44:55.959Z,1.37
2019-03-17T16:47:22.404Z,1.20
2019-03-17T16:49:48.912Z,1.43
2019-03-17T16:52:15.268Z,3.50
2019-03-17T16:54:41.748Z,0.80
2019-03-17T16:57:08.217Z,1.23
2019-03-17T16:59:34.624Z,2.30
2019-03-17T17:02:01.142Z,3.97
2019-03-17T17:04:27.736Z,2.30
2019-03-17T17:06:54.200Z,1.43
2019-03-17T17:09:20.568Z,1.10
2019-03-17T17:11:56.684Z,3.33
2019-03-17T17:14:15.503Z,2.10
2019-03-17T17:16:41.946Z,1.63
2019-03-17T17:19:08.327Z,0.80
2019-03-17T17:21:34.872Z,2.00
2019-03-17T17:24:03.598Z,0.90
2019-03-17T17:26:37.329Z,1.10
2019-03-17T17:28:58.384Z,1.00
2019-03-17T17:31:24.869Z,0.70
2019-03-17T17:33:51.354Z,0.83
2019-03-17T17:36:17.807Z,0.97
2019-03-17T17:38:44.188Z,1.20
2019-03-17T17:41:11.401Z,1.30
2019-03-17T17:43:37.903Z,1.43
2019-03-17T17:46:04.454Z,1.50
2019-03-17T17:48:30.827Z,1.33
2019-03-17T17:50:57.281Z,1.10
2019-03-17T17:53:23.742Z,1.30
2019-03-17T17:55:50.144Z,1.03
2019-03-17T17:58:16.620Z,1.13
2019-03-17T18:00:45.065Z,1.10
2019-03-17T18:03:11.655Z,1.00
2019-03-17T18:05:38.148Z,1.00
2019-03-17T18:08:04.608Z,1.10
2019-03-17T18:10:33.486Z,1.30
2019-03-17T18:12:59.856Z,1.40
2019-03-17T18:15:27.234Z,1.20
2019-03-17T18:17:53.619Z,1.40
2019-03-17T18:20:20.089Z,1.20
2019-03-17T18:22:46.472Z,1.40
2019-03-17T18:25:14.916Z,1.27
2019-03-17T18:27:41.264Z,1.20
2019-03-17T18:30:09.630Z,1.50
2019-03-17T18:32:38.280Z,2.10
2019-03-17T18:35:05.076Z,2.23
2019-03-17T18:37:31.660Z,1.23
2019-03-17T18:39:58.130Z,1.40
2019-03-17T18:42:33.065Z,1.83
2019-03-17T18:44:52.967Z,1.10
2019-03-17T18:47:19.317Z,1.63
2019-03-17T18:49:45.815Z,1.93
2019-03-17T18:52:12.225Z,1.00
2019-03-17T18:54:38.714Z,1.43
2019-03-17T18:57:05.106Z,1.30
2019-03-17T18:59:31.720Z,1.20
2019-03-17T19:01:58.221Z,2.13
2019-03-17T19:04:24.774Z,1.50
2019-03-17T19:06:51.274Z,1.97
2019-03-17T19:09:17.755Z,1.57
2019-03-17T19:11:44.247Z,1.73
2019-03-17T19:14:10.822Z,1.50
2019-03-17T19:16:37.314Z,1.70
2019-03-17T19:19:03.764Z,1.60
2019-03-17T19:21:30.356Z,1.60
2019-03-17T19:23:56.709Z,1.50
2019-03-17T19:26:23.199Z,1.50
2019-03-17T19:28:49.548Z,1.50
2019-03-17T19:31:16.115Z,1.50
2019-03-17T19:33:42.483Z,1.90
2019-03-17T19:36:08.955Z,2.00
2019-03-17T19:38:35.512Z,1.90
2019-03-17T19:41:02.145Z,2.23
2019-03-17T19:43:28.772Z,2.00
2019-03-17T19:45:55.347Z,2.60
2019-03-17T19:48:21.818Z,1.90
2019-03-17T19:50:48.300Z,1.80
2019-03-17T19:53:14.751Z,1.60
2019-03-17T19:55:41.158Z,1.90
2019-03-17T19:58:07.615Z,1.63
2019-03-17T20:00:36.019Z,1.47
2019-03-17T20:03:02.498Z,1.60
2019-03-17T20:05:28.955Z,1.80
2019-03-17T20:07:55.408Z,1.50
2019-03-17T20:10:23.145Z,1.90
2019-03-17T20:12:49.575Z,1.63
2019-03-17T20:15:15.971Z,1.70
2019-03-17T20:17:42.345Z,1.60
2019-03-17T20:20:10.131Z,1.77
2019-03-17T20:22:36.692Z,1.53
2019-03-17T20:25:04.079Z,1.60
2019-03-17T20:27:31.016Z,1.80
2019-03-17T20:29:57.481Z,1.80
2019-03-17T20:32:23.991Z,1.40
2019-03-17T20:34:50.343Z,1.60
2019-03-17T20:37:16.816Z,1.70
2019-03-17T20:39:43.380Z,1.73
2019-03-17T20:42:09.851Z,1.77
2019-03-17T20:44:36.316Z,1.40
2019-03-17T20:47:02.807Z,1.57
2019-03-17T20:49:29.176Z,1.30
2019-03-17T20:51:55.776Z,1.50
2019-03-17T20:54:22.235Z,1.67
2019-03-17T20:56:48.913Z,1.67
2019-03-17T20:59:15.389Z,1.50
2019-03-17T21:01:41.799Z,1.63
2019-03-17T21:04:08.259Z,2.20
2019-03-17T21:06:34.636Z,2.17
2019-03-17T21:09:01.196Z,2.00
2019-03-17T21:11:27.551Z,2.00
2019-03-17T21:13:54.008Z,2.47
2019-03-17T21:16:20.487Z,2.10
2019-03-17T21:18:46.939Z,1.93
2019-03-17T21:21:13.407Z,2.00
2019-03-17T21:23:39.855Z,2.40
2019-03-17T21:26:06.344Z,2.53
2019-03-17T21:28:32.800Z,2.30
2019-03-17T21:30:59.172Z,2.63
2019-03-17T21:33:26.040Z,2.50
2019-03-17T21:35:52.409Z,2.60
2019-03-17T21:38:18.760Z,2.60
2019-03-17T21:41:05.715Z,2.97
2019-03-17T21:43:13.596Z,2.40
2019-03-17T21:45:40.002Z,4.20
2019-03-17T21:48:06.383Z,2.30
2019-03-17T21:50:32.739Z,2.37
2019-03-17T21:52:59.134Z,2.50
2019-03-17T21:55:25.539Z,2.70
2019-03-17T21:57:52.004Z,2.67
2019-03-17T22:00:18.987Z,2.20
2019-03-17T22:02:45.560Z,2.27
2019-03-17T22:05:12.655Z,2.03
2019-03-17T22:07:48.968Z,2.50
2019-03-17T22:10:09.153Z,2.63
2019-03-17T22:12:35.653Z,2.27
2019-03-17T22:15:02.711Z,2.37
2019-03-17T22:17:29.080Z,2.10
2019-03-17T22:19:55.434Z,2.17
2019-03-17T22:22:22.004Z,2.70
2019-03-17T22:24:48.354Z,2.80
2019-03-17T22:27:14.721Z,2.00
2019-03-17T22:29:41.185Z,2.10
2019-03-17T22:32:07.787Z,2.70
2019-03-17T22:34:34.124Z,2.00
2019-03-17T22:37:00.615Z,2.00
2019-03-17T22:39:27.176Z,1.77
2019-03-17T22:41:53.559Z,2.00
2019-03-17T22:44:25.084Z,2.53
2019-03-17T22:46:48.304Z,2.00
2019-03-17T22:49:14.666Z,1.97
2019-03-17T22:51:41.127Z,1.70
2019-03-17T22:54:07.585Z,1.60
2019-03-17T22:56:33.943Z,1.30
2019-03-17T22:59:00.331Z,1.33
2019-03-17T23:01:26.727Z,1.50
2019-03-17T23:03:53.090Z,1.70
2019-03-17T23:06:19.660Z,1.33
2019-03-17T23:08:46.160Z,1.00
2019-03-17T23:11:12.511Z,1.50
2019-03-17T23:13:38.887Z,1.63
2019-03-17T23:16:05.439Z,1.50
2019-03-17T23:18:31.915Z,1.20
2019-03-17T23:20:58.499Z,1.60
2019-03-17T23:23:24.979Z,1.50
2019-03-17T23:25:51.439Z,1.40
2019-03-17T23:28:17.910Z,1.70
2019-03-17T23:30:44.371Z,1.60
2019-03-17T23:33:10.844Z,1.40
2019-03-17T23:35:37.293Z,1.63
2019-03-17T23:38:03.665Z,1.57
2019-03-17T23:40:30.021Z,1.33
2019-03-17T23:42:56.400Z,1.40
2019-03-17T23:45:22.847Z,1.80
2019-03-17T23:47:49.324Z,1.57
2019-03-17T23:50:15.674Z,1.73
2019-03-17T23:52:42.250Z,1.67
2019-03-17T23:55:09.499Z,1.60
2019-03-17T23:57:35.883Z,1.60
